Time;durP1;ratioP1;P1;durP2;ratioP2;P2;SDS_P1;SDS_P2;PMS_P1;PMS_P2;Temp;Humidity;BMP_temperature;BMP_pressure;BME280_temperature;BME280_humidity;BME280_pressure;Samples;Min_cycle;Max_cycle;Signal;HPM_P1;HPM_P2
2022/10/25 00:02:33;;;;;;;0.20;0.00;;;18.40;99.90;;;;;;26171232;22;20365;-71
2022/10/25 00:12:43;;;;;;;0.20;0.00;;;18.60;99.90;;;;;;26171388;22;20361;-70
2022/10/25 00:22:47;;;;;;;0.20;0.00;;;19.30;99.90;;;;;;26144161;22;20380;-70
2022/10/25 00:32:53;;;;;;;0.20;0.00;;;19.60;99.90;;;;;;26170964;22;20365;-70
2022/10/25 00:42:57;;;;;;;0.20;0.00;;;20.70;99.90;;;;;;26168548;22;20399;-70
2022/10/25 00:53:08;;;;;;;0.20;0.00;;;21.00;99.90;;;;;;26169199;22;20361;-70
2022/10/25 01:03:13;;;;;;;0.20;0.00;;;20.90;99.90;;;;;;26168891;22;20419;-70
2022/10/25 01:13:18;;;;;;;0.20;0.00;;;20.40;99.90;;;;;;26166661;22;20357;-70
2022/10/25 01:23:47;;;;;;;0.20;0.00;;;20.00;99.90;;;;;;26165414;22;20365;-70
2022/10/25 01:33:57;;;;;;;0.20;0.00;;;19.80;99.90;;;;;;26163964;22;20368;-70
2022/10/25 01:44:14;;;;;;;0.20;0.00;;;19.10;99.90;;;;;;26165438;22;20373;-70
2022/10/25 01:54:21;;;;;;;0.20;0.00;;;19.10;99.90;;;;;;26168728;22;20372;-70
2022/10/25 02:04:33;;;;;;;0.20;0.08;;;18.80;99.90;;;;;;26166201;22;20369;-71
2022/10/25 02:14:40;;;;;;;0.20;0.10;;;18.50;99.90;;;;;;26164584;22;20364;-70
2022/10/25 02:24:47;;;;;;;0.20;0.10;;;18.30;99.90;;;;;;26165580;22;20396;-71
2022/10/25 02:34:52;;;;;;;0.20;0.10;;;18.20;99.90;;;;;;26164565;22;20357;-70
2022/10/25 02:44:56;;;;;;;0.20;0.00;;;18.30;99.90;;;;;;26164420;22;20376;-70
2022/10/25 02:55:01;;;;;;;0.20;0.10;;;18.70;99.90;;;;;;26163614;22;20357;-70
2022/10/25 03:05:05;;;;;;;0.20;0.10;;;18.80;99.90;;;;;;26168184;22;20368;-69
2022/10/25 03:15:11;;;;;;;0.20;0.10;;;19.00;99.90;;;;;;26173423;22;20360;-70
2022/10/25 03:25:15;;;;;;;0.20;0.00;;;19.20;99.90;;;;;;26173419;22;20368;-69
2022/10/25 03:35:21;;;;;;;0.20;0.00;;;19.40;99.90;;;;;;26172601;22;20368;-71
2022/10/25 03:45:25;;;;;;;0.20;0.00;;;19.60;99.90;;;;;;26169213;22;20365;-70
2022/10/25 03:55:30;;;;;;;0.20;0.03;;;19.40;99.90;;;;;;26171096;22;20373;-72
2022/10/25 04:05:33;;;;;;;0.20;0.00;;;19.40;99.90;;;;;;26167795;22;20380;-73
2022/10/25 04:15:39;;;;;;;0.20;0.00;;;19.30;99.90;;;;;;26171122;22;20808;-71
2022/10/25 04:25:43;;;;;;;0.20;0.00;;;19.40;99.90;;;;;;26166619;22;20395;-71
2022/10/25 04:35:55;;;;;;;0.20;0.00;;;19.60;99.90;;;;;;26166670;22;20359;-71
2022/10/25 04:46:00;;;;;;;0.20;0.00;;;19.80;99.90;;;;;;26168678;22;20387;-71
2022/10/25 04:56:07;;;;;;;0.20;0.00;;;19.60;99.90;;;;;;26164805;22;20360;-70
2022/10/25 05:06:14;;;;;;;0.20;0.00;;;19.50;99.90;;;;;;26168558;22;20914;-71
2022/10/25 05:16:22;;;;;;;0.20;0.00;;;19.60;99.90;;;;;;26162739;22;20361;-69
2022/10/25 05:26:26;;;;;;;0.20;0.10;;;19.40;99.90;;;;;;26165481;22;20376;-70
2022/10/25 05:36:32;;;;;;;0.20;0.00;;;19.40;99.90;;;;;;26164612;22;20389;-68
2022/10/25 05:46:36;;;;;;;0.20;0.03;;;19.40;99.90;;;;;;26162058;22;20376;-72
2022/10/25 05:56:42;;;;;;;0.20;0.10;;;19.10;99.90;;;;;;26156919;22;20369;-70
2022/10/25 06:06:47;;;;;;;0.20;0.08;;;19.20;99.90;;;;;;26154388;22;20373;-70
2022/10/25 06:16:52;;;;;;;0.20;0.00;;;19.10;99.90;;;;;;26160684;22;20796;-71
2022/10/25 06:26:56;;;;;;;0.20;0.00;;;18.90;99.90;;;;;;26160741;22;20371;-73
2022/10/25 06:37:01;;;;;;;0.20;0.10;;;19.10;99.90;;;;;;26161475;22;20357;-71
2022/10/25 06:47:05;;;;;;;0.20;0.10;;;19.20;99.90;;;;;;26160263;22;20391;-70
2022/10/25 06:57:21;;;;;;;0.20;0.00;;;19.30;99.90;;;;;;26156292;22;20368;-71
2022/10/25 07:07:25;;;;;;;0.20;0.00;;;19.80;99.90;;;;;;26157351;22;20875;-70
2022/10/25 07:17:30;;;;;;;0.20;0.00;;;20.20;99.90;;;;;;26155604;22;20360;-72
2022/10/25 07:27:34;;;;;;;0.20;0.00;;;20.50;99.90;;;;;;26155318;22;20380;-70
2022/10/25 07:37:40;;;;;;;0.20;0.00;;;21.00;99.90;;;;;;26154188;22;21204;-73
2022/10/25 07:47:43;;;;;;;0.20;0.03;;;21.30;99.90;;;;;;26159914;22;20369;-72
2022/10/25 07:57:49;;;;;;;0.20;0.00;;;22.00;99.90;;;;;;26165201;22;20498;-70
2022/10/25 08:07:53;;;;;;;0.20;0.00;;;22.70;99.90;;;;;;26164845;22;20369;-71
2022/10/25 08:17:59;;;;;;;0.20;0.00;;;23.00;99.90;;;;;;26166103;22;20372;-71
2022/10/25 08:28:03;;;;;;;0.20;0.00;;;22.80;99.90;;;;;;26163631;22;20376;-70
2022/10/25 08:38:09;;;;;;;0.20;0.00;;;22.80;99.90;;;;;;26165813;22;20361;-70
2022/10/25 08:48:16;;;;;;;0.20;0.10;;;23.20;99.90;;;;;;26161614;22;20380;-71
2022/10/25 08:58:28;;;;;;;0.20;0.00;;;23.70;99.90;;;;;;26161772;22;20364;-70
2022/10/25 09:08:41;;;;;;;0.20;0.10;;;23.40;99.90;;;;;;26158185;22;20377;-67
2022/10/25 09:18:49;;;;;;;0.20;0.10;;;23.40;99.90;;;;;;26159003;22;20365;-70
2022/10/25 09:29:01;;;;;;;0.20;0.00;;;23.60;99.90;;;;;;26162694;22;20399;-69
2022/10/25 09:39:14;;;;;;;0.20;0.00;;;23.70;99.90;;;;;;26158174;22;20402;-71
2022/10/25 09:49:25;;;;;;;0.20;0.00;;;23.70;99.90;;;;;;26161649;22;20413;-70
2022/10/25 09:59:30;;;;;;;0.20;0.00;;;24.20;99.90;;;;;;26155746;22;20357;-71
2022/10/25 10:09:36;;;;;;;0.20;0.00;;;24.40;99.90;;;;;;26160759;22;20802;-70
2022/10/25 10:20:12;;;;;;;0.20;0.10;;;24.90;99.90;;;;;;26161567;22;20376;-71
2022/10/25 10:30:25;;;;;;;0.20;0.00;;;25.30;99.90;;;;;;26161121;22;20357;-69
2022/10/25 10:40:30;;;;;;;0.20;0.00;;;25.90;99.90;;;;;;26159931;22;20388;-70
2022/10/25 10:50:35;;;;;;;0.20;0.03;;;25.90;99.90;;;;;;26156381;22;20365;-69
2022/10/25 11:00:47;;;;;;;0.20;0.03;;;26.00;99.90;;;;;;26158076;22;20365;-69
2022/10/25 11:10:51;;;;;;;0.20;0.10;;;26.40;99.90;;;;;;26158409;22;20818;-70
2022/10/25 11:21:04;;;;;;;0.20;0.00;;;26.80;99.90;;;;;;26153695;22;20368;-71
2022/10/25 11:31:18;;;;;;;1.50;1.40;;;27.20;99.90;;;;;;26138607;22;20365;-69
2022/10/25 11:41:36;;;;;;;0.20;0.00;;;27.30;99.90;;;;;;26167349;22;20372;-68
2022/10/25 11:51:54;;;;;;;0.20;0.00;;;26.70;99.90;;;;;;26164770;22;20412;-69
2022/10/25 12:02:17;;;;;;;0.20;0.00;;;26.90;99.90;;;;;;26168064;22;20365;-69
2022/10/25 12:12:26;;;;;;;0.20;0.00;;;27.40;99.90;;;;;;26167496;22;20380;-69
2022/10/25 12:22:36;;;;;;;0.20;0.00;;;27.90;99.90;;;;;;26165641;22;20365;-69
2022/10/25 12:32:43;;;;;;;0.20;0.00;;;27.50;99.90;;;;;;26161999;22;20353;-66
2022/10/25 12:42:51;;;;;;;0.20;0.00;;;27.60;99.90;;;;;;26154927;22;20360;-70
2022/10/25 12:53:20;;;;;;;0.20;0.00;;;27.70;99.90;;;;;;26155422;22;20429;-69
2022/10/25 13:04:00;;;;;;;0.20;0.03;;;27.40;99.90;;;;;;26160384;22;20369;-69
2022/10/25 13:14:16;;;;;;;0.20;0.00;;;27.20;99.90;;;;;;26159785;22;20357;-70
2022/10/25 13:24:39;;;;;;;0.20;0.00;;;26.80;99.90;;;;;;26156790;22;20369;-69
2022/10/25 13:34:44;;;;;;;0.20;0.10;;;27.20;99.90;;;;;;26159952;22;20365;-69
2022/10/25 13:44:54;;;;;;;0.20;0.00;;;27.30;99.90;;;;;;26158260;22;20395;-70
2022/10/25 13:55:02;;;;;;;0.20;0.00;;;28.40;99.90;;;;;;26159097;22;20365;-73
2022/10/25 14:05:10;;;;;;;0.20;0.00;;;28.50;99.90;;;;;;26157350;22;20385;-70
2022/10/25 14:15:20;;;;;;;0.20;0.00;;;28.60;99.90;;;;;;26158458;22;20365;-69
2022/10/25 14:25:28;;;;;;;0.20;0.00;;;28.50;99.90;;;;;;26158795;22;20400;-68
2022/10/25 14:35:35;;;;;;;0.20;0.00;;;28.10;99.90;;;;;;26155941;22;20361;-68
2022/10/25 14:45:39;;;;;;;0.20;0.00;;;28.40;99.90;;;;;;26155482;22;20406;-68
2022/10/25 14:55:51;;;;;;;0.20;0.00;;;28.00;99.90;;;;;;26152764;22;20353;-69
2022/10/25 15:05:55;;;;;;;0.20;0.00;;;28.00;99.90;;;;;;26150846;22;20385;-71
2022/10/25 15:16:04;;;;;;;0.20;0.00;;;26.80;99.90;;;;;;26124843;22;20367;-69
2022/10/25 15:26:25;;;;;;;0.20;0.00;;;25.80;99.90;;;;;;26149938;22;20360;-69
2022/10/25 15:36:32;;;;;;;0.20;0.00;;;25.20;99.90;;;;;;26151988;22;20364;-73
2022/10/25 15:46:36;;;;;;;0.20;0.00;;;24.50;99.90;;;;;;26150682;22;20377;-69
2022/10/25 15:56:42;;;;;;;0.20;0.00;;;24.40;99.90;;;;;;26153752;22;20415;-69
2022/10/25 16:06:47;;;;;;;0.20;0.00;;;24.10;99.90;;;;;;26153284;22;20368;-71
2022/10/25 16:16:53;;;;;;;0.20;0.00;;;23.80;99.90;;;;;;26161161;22;20357;-69
2022/10/25 16:26:58;;;;;;;0.20;0.00;;;23.60;99.90;;;;;;26161482;22;20373;-70
2022/10/25 16:37:03;;;;;;;0.20;0.00;;;23.70;99.90;;;;;;26160813;22;20428;-69
2022/10/25 16:47:12;;;;;;;0.20;0.00;;;23.50;99.90;;;;;;26164345;22;20388;-69
2022/10/25 16:57:18;;;;;;;0.20;0.00;;;23.30;99.90;;;;;;26163494;22;20432;-70
2022/10/25 17:07:23;;;;;;;0.20;0.00;;;23.30;99.90;;;;;;26159595;22;20380;-69
2022/10/25 17:17:28;;;;;;;0.20;0.00;;;23.10;99.90;;;;;;26156672;22;20437;-69
2022/10/25 17:27:33;;;;;;;0.20;0.00;;;23.00;99.90;;;;;;26161893;22;20380;-69
2022/10/25 17:37:41;;;;;;;0.20;0.10;;;22.80;99.90;;;;;;26160771;22;20361;-68
2022/10/25 17:47:46;;;;;;;0.20;0.00;;;22.80;99.90;;;;;;26160236;22;20369;-69
2022/10/25 17:57:52;;;;;;;0.20;0.00;;;22.80;99.90;;;;;;26161156;22;20448;-68
2022/10/25 18:07:55;;;;;;;0.20;0.00;;;22.60;99.90;;;;;;26156874;22;20360;-69
2022/10/25 18:18:01;;;;;;;0.20;0.00;;;22.20;99.90;;;;;;26161190;22;20353;-69
2022/10/25 18:28:05;;;;;;;0.20;0.00;;;22.40;99.90;;;;;;26161618;22;20361;-69
2022/10/25 18:38:10;;;;;;;0.20;0.00;;;22.40;99.90;;;;;;26161201;22;20361;-69
2022/10/25 18:48:20;;;;;;;0.20;0.00;;;22.60;99.90;;;;;;26160024;22;20380;-70
2022/10/25 18:58:25;;;;;;;0.20;0.00;;;22.60;99.90;;;;;;26151787;22;20369;-69
2022/10/25 19:08:29;;;;;;;0.20;0.00;;;21.90;99.90;;;;;;26156668;22;20369;-68
2022/10/25 19:18:36;;;;;;;0.20;0.00;;;22.20;99.90;;;;;;26157157;22;20361;-70
2022/10/25 19:28:40;;;;;;;0.20;0.00;;;21.90;99.90;;;;;;26157042;22;20373;-68
2022/10/25 19:38:47;;;;;;;0.20;0.00;;;21.60;99.90;;;;;;26155389;22;20479;-69
2022/10/25 19:48:50;;;;;;;0.20;0.00;;;21.20;99.90;;;;;;26164775;22;20364;-69
2022/10/25 19:58:56;;;;;;;0.20;0.00;;;21.20;99.90;;;;;;26164916;22;20365;-70
2022/10/25 20:09:01;;;;;;;0.20;0.00;;;21.10;99.90;;;;;;26166426;22;20373;-69
2022/10/25 20:19:06;;;;;;;0.20;0.00;;;20.70;99.90;;;;;;26160672;22;20356;-71
2022/10/25 20:29:14;;;;;;;0.20;0.00;;;20.80;99.90;;;;;;26165355;22;20373;-69
2022/10/25 20:39:25;;;;;;;0.20;0.00;;;20.60;99.90;;;;;;26164515;22;20364;-70
2022/10/25 20:49:28;;;;;;;0.20;0.00;;;20.40;99.90;;;;;;26160769;22;20373;-70
2022/10/25 20:59:34;;;;;;;0.20;0.00;;;20.40;99.90;;;;;;26163037;22;20477;-69
2022/10/25 21:09:37;;;;;;;0.20;0.00;;;20.20;99.90;;;;;;26162053;22;20383;-69
2022/10/25 21:19:42;;;;;;;0.20;0.00;;;20.10;99.90;;;;;;26166811;22;20361;-69
2022/10/25 21:29:46;;;;;;;0.20;0.00;;;20.10;99.90;;;;;;26165946;22;20373;-69
2022/10/25 21:39:52;;;;;;;0.20;0.00;;;19.90;99.90;;;;;;26165599;22;20372;-69
2022/10/25 21:49:55;;;;;;;0.20;0.00;;;19.80;99.90;;;;;;26162767;22;20381;-70
2022/10/25 22:00:01;;;;;;;0.20;0.00;;;19.80;99.90;;;;;;26167195;22;20364;-68
2022/10/25 22:10:06;;;;;;;0.20;0.00;;;19.40;99.90;;;;;;26165236;22;20372;-68
2022/10/25 22:20:11;;;;;;;0.20;0.00;;;19.30;99.90;;;;;;26165509;22;20385;-70
2022/10/25 22:30:17;;;;;;;0.20;0.00;;;19.10;99.90;;;;;;26162644;22;20387;-69
2022/10/25 22:40:23;;;;;;;0.20;0.00;;;19.00;99.90;;;;;;26164946;22;20365;-72
2022/10/25 22:50:26;;;;;;;0.20;0.00;;;18.90;99.90;;;;;;26163887;22;20372;-70
2022/10/25 23:00:32;;;;;;;0.20;0.00;;;18.80;99.90;;;;;;26163760;22;20356;-70
2022/10/25 23:10:35;;;;;;;0.20;0.00;;;18.70;99.90;;;;;;26162276;22;20379;-71
2022/10/25 23:20:48;;;;;;;0.20;0.00;;;18.50;99.90;;;;;;26167678;22;20356;-70
2022/10/25 23:30:52;;;;;;;0.20;0.00;;;18.60;99.90;;;;;;26172440;22;20449;-69
2022/10/25 23:40:58;;;;;;;0.20;0.00;;;18.40;99.90;;;;;;26168071;22;20361;-70
2022/10/25 23:51:03;;;;;;;0.20;0.00;;;18.40;99.90;;;;;;26163188;22;20369;-69
